sensor_id;sensor_type;location;lat;lon;timestamp;P1;durP1;ratioP1;P2;durP2;ratioP2
71973;SDS011;59840;52.122;5.404;2024-02-26T00:01:54;1.98;;;1.75;;
71973;SDS011;59840;52.122;5.404;2024-02-26T00:04:20;3.60;;;1.92;;
71973;SDS011;59840;52.122;5.404;2024-02-26T00:06:48;2.27;;;1.80;;
71973;SDS011;59840;52.122;5.404;2024-02-26T00:09:17;2.50;;;1.73;;
71973;SDS011;59840;52.122;5.404;2024-02-26T00:11:44;3.72;;;1.80;;
71973;SDS011;59840;52.122;5.404;2024-02-26T00:14:10;1.98;;;1.77;;
71973;SDS011;59840;52.122;5.404;2024-02-26T00:16:39;2.58;;;1.98;;
71973;SDS011;59840;52.122;5.404;2024-02-26T00:19:07;1.90;;;1.70;;
71973;SDS011;59840;52.122;5.404;2024-02-26T00:21:34;2.78;;;2.10;;
71973;SDS011;59840;52.122;5.404;2024-02-26T00:24:00;2.45;;;2.00;;
71973;SDS011;59840;52.122;5.404;2024-02-26T00:26:27;3.53;;;2.20;;
71973;SDS011;59840;52.122;5.404;2024-02-26T00:28:53;2.33;;;1.90;;
71973;SDS011;59840;52.122;5.404;2024-02-26T00:31:20;3.27;;;2.47;;
71973;SDS011;59840;52.122;5.404;2024-02-26T00:33:47;3.17;;;2.38;;
71973;SDS011;59840;52.122;5.404;2024-02-26T00:36:13;2.65;;;2.08;;
71973;SDS011;59840;52.122;5.404;2024-02-26T00:38:40;2.67;;;2.30;;
71973;SDS011;59840;52.122;5.404;2024-02-26T00:41:07;4.03;;;2.15;;
71973;SDS011;59840;52.122;5.404;2024-02-26T00:43:33;2.70;;;2.10;;
71973;SDS011;59840;52.122;5.404;2024-02-26T00:46:00;2.75;;;2.22;;
71973;SDS011;59840;52.122;5.404;2024-02-26T00:48:27;3.20;;;2.33;;
71973;SDS011;59840;52.122;5.404;2024-02-26T00:50:53;4.40;;;2.67;;
71973;SDS011;59840;52.122;5.404;2024-02-26T00:53:20;3.47;;;2.70;;
71973;SDS011;59840;52.122;5.404;2024-02-26T00:55:47;2.93;;;2.47;;
71973;SDS011;59840;52.122;5.404;2024-02-26T00:58:13;4.97;;;2.67;;
71973;SDS011;59840;52.122;5.404;2024-02-26T01:00:40;3.97;;;2.40;;
71973;SDS011;59840;52.122;5.404;2024-02-26T01:03:06;4.32;;;2.25;;
71973;SDS011;59840;52.122;5.404;2024-02-26T01:05:33;5.30;;;2.78;;
71973;SDS011;59840;52.122;5.404;2024-02-26T01:08:00;3.30;;;2.80;;
71973;SDS011;59840;52.122;5.404;2024-02-26T01:10:27;4.97;;;2.60;;
71973;SDS011;59840;52.122;5.404;2024-02-26T01:12:53;4.13;;;2.63;;
71973;SDS011;59840;52.122;5.404;2024-02-26T01:15:20;3.92;;;2.50;;
71973;SDS011;59840;52.122;5.404;2024-02-26T01:17:50;2.78;;;2.25;;
71973;SDS011;59840;52.122;5.404;2024-02-26T01:20:17;2.87;;;2.40;;
71973;SDS011;59840;52.122;5.404;2024-02-26T01:22:44;3.88;;;2.15;;
71973;SDS011;59840;52.122;5.404;2024-02-26T01:25:11;3.75;;;2.60;;
71973;SDS011;59840;52.122;5.404;2024-02-26T01:27:38;3.35;;;2.88;;
71973;SDS011;59840;52.122;5.404;2024-02-26T01:30:07;4.93;;;3.00;;
71973;SDS011;59840;52.122;5.404;2024-02-26T01:32:34;3.10;;;1.97;;
71973;SDS011;59840;52.122;5.404;2024-02-26T01:35:02;4.05;;;2.65;;
71973;SDS011;59840;52.122;5.404;2024-02-26T01:37:36;2.80;;;2.15;;
71973;SDS011;59840;52.122;5.404;2024-02-26T01:40:03;5.68;;;2.53;;
71973;SDS011;59840;52.122;5.404;2024-02-26T01:42:37;4.90;;;2.75;;
71973;SDS011;59840;52.122;5.404;2024-02-26T01:45:05;2.97;;;2.60;;
71973;SDS011;59840;52.122;5.404;2024-02-26T01:47:33;3.08;;;2.20;;
71973;SDS011;59840;52.122;5.404;2024-02-26T01:50:00;3.35;;;2.78;;
71973;SDS011;59840;52.122;5.404;2024-02-26T01:52:27;3.58;;;2.58;;
71973;SDS011;59840;52.122;5.404;2024-02-26T01:54:53;3.70;;;2.75;;
71973;SDS011;59840;52.122;5.404;2024-02-26T01:57:20;2.90;;;2.37;;
71973;SDS011;59840;52.122;5.404;2024-02-26T01:59:47;4.05;;;2.90;;
71973;SDS011;59840;52.122;5.404;2024-02-26T02:02:13;6.38;;;2.58;;
71973;SDS011;59840;52.122;5.404;2024-02-26T02:04:41;4.28;;;2.80;;
71973;SDS011;59840;52.122;5.404;2024-02-26T02:07:08;4.03;;;3.03;;
71973;SDS011;59840;52.122;5.404;2024-02-26T02:09:35;3.47;;;2.47;;
71973;SDS011;59840;52.122;5.404;2024-02-26T02:12:02;3.38;;;2.42;;
71973;SDS011;59840;52.122;5.404;2024-02-26T02:14:28;4.43;;;2.80;;
71973;SDS011;59840;52.122;5.404;2024-02-26T02:16:55;3.78;;;2.85;;
71973;SDS011;59840;52.122;5.404;2024-02-26T02:19:22;4.90;;;3.15;;
71973;SDS011;59840;52.122;5.404;2024-02-26T02:21:49;3.10;;;2.57;;
71973;SDS011;59840;52.122;5.404;2024-02-26T02:24:15;3.33;;;2.60;;
71973;SDS011;59840;52.122;5.404;2024-02-26T02:26:42;4.47;;;2.78;;
71973;SDS011;59840;52.122;5.404;2024-02-26T02:29:08;3.47;;;2.60;;
71973;SDS011;59840;52.122;5.404;2024-02-26T02:31:36;3.67;;;2.47;;
71973;SDS011;59840;52.122;5.404;2024-02-26T02:34:02;4.70;;;2.73;;
71973;SDS011;59840;52.122;5.404;2024-02-26T02:36:29;3.53;;;2.38;;
71973;SDS011;59840;52.122;5.404;2024-02-26T02:38:56;4.20;;;3.00;;
71973;SDS011;59840;52.122;5.404;2024-02-26T02:41:23;2.80;;;2.15;;
71973;SDS011;59840;52.122;5.404;2024-02-26T02:43:50;3.00;;;2.20;;
71973;SDS011;59840;52.122;5.404;2024-02-26T02:46:16;7.80;;;2.80;;
71973;SDS011;59840;52.122;5.404;2024-02-26T02:48:43;3.70;;;2.72;;
71973;SDS011;59840;52.122;5.404;2024-02-26T02:51:11;4.80;;;2.70;;
71973;SDS011;59840;52.122;5.404;2024-02-26T02:53:37;4.10;;;2.55;;
71973;SDS011;59840;52.122;5.404;2024-02-26T02:56:04;4.70;;;2.50;;
71973;SDS011;59840;52.122;5.404;2024-02-26T02:58:31;3.80;;;2.23;;
71973;SDS011;59840;52.122;5.404;2024-02-26T03:00:58;3.97;;;2.10;;
71973;SDS011;59840;52.122;5.404;2024-02-26T03:03:26;3.42;;;2.53;;
71973;SDS011;59840;52.122;5.404;2024-02-26T03:05:55;4.05;;;2.38;;
71973;SDS011;59840;52.122;5.404;2024-02-26T03:08:22;3.88;;;2.72;;
71973;SDS011;59840;52.122;5.404;2024-02-26T03:10:48;5.90;;;2.40;;
71973;SDS011;59840;52.122;5.404;2024-02-26T03:13:15;6.78;;;2.72;;
71973;SDS011;59840;52.122;5.404;2024-02-26T03:15:41;4.90;;;2.90;;
71973;SDS011;59840;52.122;5.404;2024-02-26T03:18:08;3.47;;;2.65;;
71973;SDS011;59840;52.122;5.404;2024-02-26T03:20:35;3.60;;;2.50;;
71973;SDS011;59840;52.122;5.404;2024-02-26T03:23:03;4.90;;;2.87;;
71973;SDS011;59840;52.122;5.404;2024-02-26T03:25:30;4.68;;;3.30;;
71973;SDS011;59840;52.122;5.404;2024-02-26T03:27:56;4.03;;;2.63;;
71973;SDS011;59840;52.122;5.404;2024-02-26T03:30:23;3.67;;;2.70;;
71973;SDS011;59840;52.122;5.404;2024-02-26T03:32:49;5.40;;;3.20;;
71973;SDS011;59840;52.122;5.404;2024-02-26T03:35:16;4.17;;;2.93;;
71973;SDS011;59840;52.122;5.404;2024-02-26T03:37:43;3.88;;;2.95;;
71973;SDS011;59840;52.122;5.404;2024-02-26T03:40:09;4.18;;;3.15;;
71973;SDS011;59840;52.122;5.404;2024-02-26T03:42:39;4.40;;;3.22;;
71973;SDS011;59840;52.122;5.404;2024-02-26T03:45:06;4.57;;;3.40;;
71973;SDS011;59840;52.122;5.404;2024-02-26T03:47:32;5.10;;;3.33;;
71973;SDS011;59840;52.122;5.404;2024-02-26T03:49:59;4.82;;;3.40;;
71973;SDS011;59840;52.122;5.404;2024-02-26T03:52:25;4.70;;;3.75;;
71973;SDS011;59840;52.122;5.404;2024-02-26T03:54:52;5.38;;;3.22;;
71973;SDS011;59840;52.122;5.404;2024-02-26T03:57:18;5.30;;;3.50;;
71973;SDS011;59840;52.122;5.404;2024-02-26T03:59:45;4.47;;;3.00;;
71973;SDS011;59840;52.122;5.404;2024-02-26T04:02:12;5.13;;;3.45;;
71973;SDS011;59840;52.122;5.404;2024-02-26T04:04:38;8.02;;;3.92;;
71973;SDS011;59840;52.122;5.404;2024-02-26T04:07:05;4.45;;;3.33;;
71973;SDS011;59840;52.122;5.404;2024-02-26T04:09:32;4.72;;;3.47;;
71973;SDS011;59840;52.122;5.404;2024-02-26T04:11:59;4.20;;;3.13;;
71973;SDS011;59840;52.122;5.404;2024-02-26T04:14:26;4.82;;;2.97;;
71973;SDS011;59840;52.122;5.404;2024-02-26T04:16:52;5.88;;;3.13;;
71973;SDS011;59840;52.122;5.404;2024-02-26T04:19:20;6.45;;;3.85;;
71973;SDS011;59840;52.122;5.404;2024-02-26T04:21:47;4.22;;;3.15;;
71973;SDS011;59840;52.122;5.404;2024-02-26T04:24:14;5.70;;;3.87;;
71973;SDS011;59840;52.122;5.404;2024-02-26T04:26:41;5.28;;;3.55;;
71973;SDS011;59840;52.122;5.404;2024-02-26T04:29:07;5.78;;;3.20;;
71973;SDS011;59840;52.122;5.404;2024-02-26T04:31:34;4.55;;;2.95;;
71973;SDS011;59840;52.122;5.404;2024-02-26T04:34:01;5.38;;;3.25;;
71973;SDS011;59840;52.122;5.404;2024-02-26T04:36:27;4.97;;;3.40;;
71973;SDS011;59840;52.122;5.404;2024-02-26T04:38:54;4.82;;;3.20;;
71973;SDS011;59840;52.122;5.404;2024-02-26T04:41:22;4.15;;;2.83;;
71973;SDS011;59840;52.122;5.404;2024-02-26T04:43:48;6.85;;;3.22;;
71973;SDS011;59840;52.122;5.404;2024-02-26T04:46:15;4.63;;;3.35;;
71973;SDS011;59840;52.122;5.404;2024-02-26T04:48:41;5.97;;;3.17;;
71973;SDS011;59840;52.122;5.404;2024-02-26T04:51:08;5.95;;;2.88;;
71973;SDS011;59840;52.122;5.404;2024-02-26T04:53:35;5.07;;;3.20;;
71973;SDS011;59840;52.122;5.404;2024-02-26T04:56:02;5.25;;;3.03;;
71973;SDS011;59840;52.122;5.404;2024-02-26T04:58:28;4.85;;;3.00;;
71973;SDS011;59840;52.122;5.404;2024-02-26T05:00:55;4.60;;;3.30;;
71973;SDS011;59840;52.122;5.404;2024-02-26T05:03:22;4.70;;;3.55;;
71973;SDS011;59840;52.122;5.404;2024-02-26T05:05:49;4.43;;;3.10;;
71973;SDS011;59840;52.122;5.404;2024-02-26T05:08:15;4.30;;;3.33;;
71973;SDS011;59840;52.122;5.404;2024-02-26T05:10:42;5.68;;;3.30;;
71973;SDS011;59840;52.122;5.404;2024-02-26T05:13:11;5.63;;;3.53;;
71973;SDS011;59840;52.122;5.404;2024-02-26T05:15:40;5.57;;;3.55;;
71973;SDS011;59840;52.122;5.404;2024-02-26T05:18:07;5.03;;;3.38;;
71973;SDS011;59840;52.122;5.404;2024-02-26T05:20:34;7.40;;;3.53;;
71973;SDS011;59840;52.122;5.404;2024-02-26T05:23:02;4.82;;;3.20;;
71973;SDS011;59840;52.122;5.404;2024-02-26T05:25:30;5.70;;;3.50;;
71973;SDS011;59840;52.122;5.404;2024-02-26T05:27:57;6.80;;;3.70;;
71973;SDS011;59840;52.122;5.404;2024-02-26T05:30:23;4.10;;;2.90;;
71973;SDS011;59840;52.122;5.404;2024-02-26T05:32:50;5.30;;;3.72;;
71973;SDS011;59840;52.122;5.404;2024-02-26T05:35:18;5.00;;;3.65;;
71973;SDS011;59840;52.122;5.404;2024-02-26T05:37:44;5.40;;;3.63;;
71973;SDS011;59840;52.122;5.404;2024-02-26T05:40:11;4.68;;;3.30;;
71973;SDS011;59840;52.122;5.404;2024-02-26T05:42:38;8.07;;;3.85;;
71973;SDS011;59840;52.122;5.404;2024-02-26T05:45:05;5.32;;;3.72;;
71973;SDS011;59840;52.122;5.404;2024-02-26T05:47:33;6.88;;;4.13;;
71973;SDS011;59840;52.122;5.404;2024-02-26T05:50:00;6.17;;;4.00;;
71973;SDS011;59840;52.122;5.404;2024-02-26T05:52:27;5.57;;;3.63;;
71973;SDS011;59840;52.122;5.404;2024-02-26T05:54:57;5.65;;;3.83;;
71973;SDS011;59840;52.122;5.404;2024-02-26T05:57:24;6.95;;;3.55;;
71973;SDS011;59840;52.122;5.404;2024-02-26T05:59:51;6.30;;;3.95;;
71973;SDS011;59840;52.122;5.404;2024-02-26T06:02:17;5.70;;;3.90;;
71973;SDS011;59840;52.122;5.404;2024-02-26T06:04:44;8.32;;;4.75;;
71973;SDS011;59840;52.122;5.404;2024-02-26T06:07:10;7.63;;;4.38;;
71973;SDS011;59840;52.122;5.404;2024-02-26T06:09:37;7.13;;;4.63;;
71973;SDS011;59840;52.122;5.404;2024-02-26T06:12:03;8.35;;;4.38;;
71973;SDS011;59840;52.122;5.404;2024-02-26T06:14:30;7.57;;;4.60;;
71973;SDS011;59840;52.122;5.404;2024-02-26T06:16:57;7.53;;;4.63;;
71973;SDS011;59840;52.122;5.404;2024-02-26T06:19:23;7.95;;;4.13;;
71973;SDS011;59840;52.122;5.404;2024-02-26T06:21:50;6.25;;;4.25;;
71973;SDS011;59840;52.122;5.404;2024-02-26T06:24:17;6.85;;;4.22;;
71973;SDS011;59840;52.122;5.404;2024-02-26T06:26:44;7.60;;;4.07;;
71973;SDS011;59840;52.122;5.404;2024-02-26T06:29:10;7.85;;;4.70;;
71973;SDS011;59840;52.122;5.404;2024-02-26T06:31:37;7.47;;;3.75;;
71973;SDS011;59840;52.122;5.404;2024-02-26T06:34:03;7.15;;;4.28;;
71973;SDS011;59840;52.122;5.404;2024-02-26T06:36:31;7.63;;;4.75;;
71973;SDS011;59840;52.122;5.404;2024-02-26T06:38:58;8.47;;;4.00;;
71973;SDS011;59840;52.122;5.404;2024-02-26T06:41:25;8.98;;;5.10;;
71973;SDS011;59840;52.122;5.404;2024-02-26T06:43:54;7.22;;;3.92;;
71973;SDS011;59840;52.122;5.404;2024-02-26T06:46:21;8.48;;;4.35;;
71973;SDS011;59840;52.122;5.404;2024-02-26T06:48:48;7.25;;;4.57;;
71973;SDS011;59840;52.122;5.404;2024-02-26T06:51:20;8.53;;;4.27;;
71973;SDS011;59840;52.122;5.404;2024-02-26T06:53:47;7.30;;;4.05;;
71973;SDS011;59840;52.122;5.404;2024-02-26T06:56:14;9.80;;;4.32;;
71973;SDS011;59840;52.122;5.404;2024-02-26T06:58:40;9.20;;;5.28;;
71973;SDS011;59840;52.122;5.404;2024-02-26T07:01:07;11.05;;;5.07;;
71973;SDS011;59840;52.122;5.404;2024-02-26T07:03:37;9.50;;;4.70;;
71973;SDS011;59840;52.122;5.404;2024-02-26T07:06:03;9.52;;;4.85;;
71973;SDS011;59840;52.122;5.404;2024-02-26T07:08:31;8.18;;;4.35;;
71973;SDS011;59840;52.122;5.404;2024-02-26T07:10:57;13.90;;;5.38;;
71973;SDS011;59840;52.122;5.404;2024-02-26T07:13:24;9.82;;;5.15;;
71973;SDS011;59840;52.122;5.404;2024-02-26T07:15:50;8.80;;;5.00;;
71973;SDS011;59840;52.122;5.404;2024-02-26T07:18:17;10.38;;;5.55;;
71973;SDS011;59840;52.122;5.404;2024-02-26T07:20:44;12.15;;;5.85;;
71973;SDS011;59840;52.122;5.404;2024-02-26T07:23:11;9.43;;;5.22;;
71973;SDS011;59840;52.122;5.404;2024-02-26T07:25:39;13.60;;;6.07;;
71973;SDS011;59840;52.122;5.404;2024-02-26T07:28:06;13.40;;;6.27;;
71973;SDS011;59840;52.122;5.404;2024-02-26T07:30:32;12.25;;;5.88;;
71973;SDS011;59840;52.122;5.404;2024-02-26T07:32:59;13.95;;;6.40;;
71973;SDS011;59840;52.122;5.404;2024-02-26T07:35:26;12.15;;;5.95;;
71973;SDS011;59840;52.122;5.404;2024-02-26T07:37:53;9.90;;;5.32;;
71973;SDS011;59840;52.122;5.404;2024-02-26T07:40:20;8.90;;;4.83;;
71973;SDS011;59840;52.122;5.404;2024-02-26T07:42:46;13.23;;;6.60;;
71973;SDS011;59840;52.122;5.404;2024-02-26T07:45:13;11.80;;;6.40;;
71973;SDS011;59840;52.122;5.404;2024-02-26T07:47:41;15.70;;;7.60;;
71973;SDS011;59840;52.122;5.404;2024-02-26T07:50:09;14.60;;;6.85;;
71973;SDS011;59840;52.122;5.404;2024-02-26T07:52:38;13.50;;;6.70;;
71973;SDS011;59840;52.122;5.404;2024-02-26T07:55:05;14.73;;;7.63;;
71973;SDS011;59840;52.122;5.404;2024-02-26T07:57:33;13.32;;;7.13;;
71973;SDS011;59840;52.122;5.404;2024-02-26T08:00:00;14.43;;;6.88;;
71973;SDS011;59840;52.122;5.404;2024-02-26T08:02:27;13.68;;;6.78;;
71973;SDS011;59840;52.122;5.404;2024-02-26T08:04:54;14.43;;;6.43;;
71973;SDS011;59840;52.122;5.404;2024-02-26T08:07:20;12.52;;;6.72;;
71973;SDS011;59840;52.122;5.404;2024-02-26T08:09:47;11.55;;;6.28;;
71973;SDS011;59840;52.122;5.404;2024-02-26T08:12:14;14.13;;;7.13;;
71973;SDS011;59840;52.122;5.404;2024-02-26T08:14:41;13.57;;;7.13;;
71973;SDS011;59840;52.122;5.404;2024-02-26T08:17:07;12.90;;;7.07;;
71973;SDS011;59840;52.122;5.404;2024-02-26T08:19:34;15.85;;;6.88;;
71973;SDS011;59840;52.122;5.404;2024-02-26T08:22:02;14.15;;;7.50;;
71973;SDS011;59840;52.122;5.404;2024-02-26T08:24:30;13.23;;;6.85;;
71973;SDS011;59840;52.122;5.404;2024-02-26T08:26:57;12.98;;;6.70;;
71973;SDS011;59840;52.122;5.404;2024-02-26T08:29:23;10.57;;;6.37;;
71973;SDS011;59840;52.122;5.404;2024-02-26T08:31:50;10.73;;;6.13;;
71973;SDS011;59840;52.122;5.404;2024-02-26T08:34:17;9.38;;;5.55;;
71973;SDS011;59840;52.122;5.404;2024-02-26T08:36:44;10.25;;;5.88;;
71973;SDS011;59840;52.122;5.404;2024-02-26T08:39:10;11.95;;;5.68;;
71973;SDS011;59840;52.122;5.404;2024-02-26T08:41:40;9.87;;;5.77;;
71973;SDS011;59840;52.122;5.404;2024-02-26T08:44:06;11.82;;;6.18;;
71973;SDS011;59840;52.122;5.404;2024-02-26T08:46:33;9.93;;;5.10;;
71973;SDS011;59840;52.122;5.404;2024-02-26T08:48:59;10.18;;;5.55;;
71973;SDS011;59840;52.122;5.404;2024-02-26T08:51:26;10.52;;;4.85;;
71973;SDS011;59840;52.122;5.404;2024-02-26T08:53:53;7.67;;;4.80;;
71973;SDS011;59840;52.122;5.404;2024-02-26T08:56:20;8.30;;;4.75;;
71973;SDS011;59840;52.122;5.404;2024-02-26T08:58:47;7.00;;;4.88;;
71973;SDS011;59840;52.122;5.404;2024-02-26T09:01:15;6.47;;;4.40;;
71973;SDS011;59840;52.122;5.404;2024-02-26T09:03:42;7.68;;;4.18;;
71973;SDS011;59840;52.122;5.404;2024-02-26T09:06:09;7.10;;;3.97;;
71973;SDS011;59840;52.122;5.404;2024-02-26T09:08:38;9.02;;;4.32;;
71973;SDS011;59840;52.122;5.404;2024-02-26T09:11:04;10.68;;;5.05;;
71973;SDS011;59840;52.122;5.404;2024-02-26T09:13:31;8.38;;;4.07;;
71973;SDS011;59840;52.122;5.404;2024-02-26T09:15:58;6.75;;;3.63;;
71973;SDS011;59840;52.122;5.404;2024-02-26T09:18:25;9.03;;;3.90;;
71973;SDS011;59840;52.122;5.404;2024-02-26T09:20:52;7.13;;;3.92;;
71973;SDS011;59840;52.122;5.404;2024-02-26T09:23:19;5.93;;;4.30;;
71973;SDS011;59840;52.122;5.404;2024-02-26T09:25:45;5.07;;;3.08;;
71973;SDS011;59840;52.122;5.404;2024-02-26T09:28:12;6.53;;;3.75;;
71973;SDS011;59840;52.122;5.404;2024-02-26T09:30:38;8.30;;;3.93;;
71973;SDS011;59840;52.122;5.404;2024-02-26T09:33:05;5.93;;;3.63;;
71973;SDS011;59840;52.122;5.404;2024-02-26T09:35:32;5.95;;;3.53;;
71973;SDS011;59840;52.122;5.404;2024-02-26T09:37:58;4.97;;;3.10;;
71973;SDS011;59840;52.122;5.404;2024-02-26T09:40:25;6.80;;;4.25;;
71973;SDS011;59840;52.122;5.404;2024-02-26T09:42:52;4.90;;;3.13;;
71973;SDS011;59840;52.122;5.404;2024-02-26T09:45:25;6.97;;;3.28;;
71973;SDS011;59840;52.122;5.404;2024-02-26T09:47:55;4.97;;;3.28;;
71973;SDS011;59840;52.122;5.404;2024-02-26T09:50:22;4.75;;;2.90;;
71973;SDS011;59840;52.122;5.404;2024-02-26T09:52:50;6.53;;;3.53;;
71973;SDS011;59840;52.122;5.404;2024-02-26T09:55:19;3.77;;;2.80;;
71973;SDS011;59840;52.122;5.404;2024-02-26T09:57:46;5.90;;;3.03;;
71973;SDS011;59840;52.122;5.404;2024-02-26T10:00:14;4.30;;;3.13;;
71973;SDS011;59840;52.122;5.404;2024-02-26T10:02:47;6.63;;;2.78;;
71973;SDS011;59840;52.122;5.404;2024-02-26T10:05:16;4.32;;;3.28;;
71973;SDS011;59840;52.122;5.404;2024-02-26T10:07:45;4.40;;;2.60;;
71973;SDS011;59840;52.122;5.404;2024-02-26T10:10:15;4.80;;;2.90;;
71973;SDS011;59840;52.122;5.404;2024-02-26T10:12:44;3.50;;;2.63;;
71973;SDS011;59840;52.122;5.404;2024-02-26T10:15:10;4.50;;;2.80;;
71973;SDS011;59840;52.122;5.404;2024-02-26T10:17:37;4.50;;;2.50;;
71973;SDS011;59840;52.122;5.404;2024-02-26T10:20:14;6.13;;;3.20;;
71973;SDS011;59840;52.122;5.404;2024-02-26T10:22:43;5.57;;;2.70;;
71973;SDS011;59840;52.122;5.404;2024-02-26T10:25:10;5.28;;;2.53;;
71973;SDS011;59840;52.122;5.404;2024-02-26T10:27:37;4.05;;;2.42;;
71973;SDS011;59840;52.122;5.404;2024-02-26T10:30:05;3.70;;;2.35;;
71973;SDS011;59840;52.122;5.404;2024-02-26T10:32:44;4.30;;;2.90;;
71973;SDS011;59840;52.122;5.404;2024-02-26T10:35:13;3.95;;;2.50;;
71973;SDS011;59840;52.122;5.404;2024-02-26T10:37:41;4.22;;;3.13;;
71973;SDS011;59840;52.122;5.404;2024-02-26T10:40:12;6.55;;;3.10;;
71973;SDS011;59840;52.122;5.404;2024-02-26T10:42:39;3.47;;;2.58;;
71973;SDS011;59840;52.122;5.404;2024-02-26T10:45:07;3.47;;;2.30;;
71973;SDS011;59840;52.122;5.404;2024-02-26T10:47:36;3.65;;;2.65;;
71973;SDS011;59840;52.122;5.404;2024-02-26T10:50:03;5.53;;;3.03;;
71973;SDS011;59840;52.122;5.404;2024-02-26T10:52:33;4.22;;;2.67;;
71973;SDS011;59840;52.122;5.404;2024-02-26T10:55:04;4.40;;;2.83;;
71973;SDS011;59840;52.122;5.404;2024-02-26T10:57:38;4.73;;;2.20;;
71973;SDS011;59840;52.122;5.404;2024-02-26T11:00:07;4.90;;;2.85;;
71973;SDS011;59840;52.122;5.404;2024-02-26T11:02:39;6.28;;;2.92;;
71973;SDS011;59840;52.122;5.404;2024-02-26T11:05:07;4.55;;;2.70;;
71973;SDS011;59840;52.122;5.404;2024-02-26T11:07:34;5.30;;;2.58;;
71973;SDS011;59840;52.122;5.404;2024-02-26T11:10:05;4.13;;;3.10;;
71973;SDS011;59840;52.122;5.404;2024-02-26T11:12:32;4.15;;;2.67;;
71973;SDS011;59840;52.122;5.404;2024-02-26T11:15:03;5.10;;;3.00;;
71973;SDS011;59840;52.122;5.404;2024-02-26T11:17:30;4.70;;;2.83;;
71973;SDS011;59840;52.122;5.404;2024-02-26T11:19:59;4.63;;;2.80;;
71973;SDS011;59840;52.122;5.404;2024-02-26T11:22:26;4.70;;;3.23;;
71973;SDS011;59840;52.122;5.404;2024-02-26T11:24:53;6.43;;;3.03;;
71973;SDS011;59840;52.122;5.404;2024-02-26T11:27:22;5.13;;;3.22;;
71973;SDS011;59840;52.122;5.404;2024-02-26T11:29:57;3.83;;;2.50;;
71973;SDS011;59840;52.122;5.404;2024-02-26T11:32:27;4.45;;;2.70;;
71973;SDS011;59840;52.122;5.404;2024-02-26T11:34:56;4.33;;;2.90;;
71973;SDS011;59840;52.122;5.404;2024-02-26T11:37:25;4.57;;;2.63;;
71973;SDS011;59840;52.122;5.404;2024-02-26T11:39:52;4.47;;;2.90;;
71973;SDS011;59840;52.122;5.404;2024-02-26T11:42:22;3.95;;;2.35;;
71973;SDS011;59840;52.122;5.404;2024-02-26T11:44:51;5.75;;;2.83;;
71973;SDS011;59840;52.122;5.404;2024-02-26T11:47:19;4.70;;;2.97;;
71973;SDS011;59840;52.122;5.404;2024-02-26T11:49:47;3.83;;;2.53;;
71973;SDS011;59840;52.122;5.404;2024-02-26T11:52:15;6.68;;;2.97;;
71973;SDS011;59840;52.122;5.404;2024-02-26T11:54:52;3.97;;;2.30;;
71973;SDS011;59840;52.122;5.404;2024-02-26T11:57:27;6.18;;;2.35;;
71973;SDS011;59840;52.122;5.404;2024-02-26T12:02:39;4.75;;;2.92;;
71973;SDS011;59840;52.122;5.404;2024-02-26T12:05:10;4.47;;;2.70;;
71973;SDS011;59840;52.122;5.404;2024-02-26T12:07:42;5.60;;;3.15;;
71973;SDS011;59840;52.122;5.404;2024-02-26T12:10:15;3.50;;;2.20;;
71973;SDS011;59840;52.122;5.404;2024-02-26T12:12:47;5.17;;;2.70;;
71973;SDS011;59840;52.122;5.404;2024-02-26T12:15:14;4.95;;;3.10;;
71973;SDS011;59840;52.122;5.404;2024-02-26T12:17:41;4.53;;;2.92;;
71973;SDS011;59840;52.122;5.404;2024-02-26T12:20:14;3.83;;;2.60;;
71973;SDS011;59840;52.122;5.404;2024-02-26T12:22:45;5.70;;;3.60;;
71973;SDS011;59840;52.122;5.404;2024-02-26T12:25:13;5.97;;;2.90;;
71973;SDS011;59840;52.122;5.404;2024-02-26T12:27:40;4.55;;;2.85;;
71973;SDS011;59840;52.122;5.404;2024-02-26T12:30:07;5.43;;;2.67;;
71973;SDS011;59840;52.122;5.404;2024-02-26T12:32:35;4.70;;;2.60;;
71973;SDS011;59840;52.122;5.404;2024-02-26T12:35:02;4.55;;;2.80;;
71973;SDS011;59840;52.122;5.404;2024-02-26T12:37:29;8.10;;;2.87;;
71973;SDS011;59840;52.122;5.404;2024-02-26T12:39:55;4.22;;;2.75;;
71973;SDS011;59840;52.122;5.404;2024-02-26T12:42:22;4.13;;;2.70;;
71973;SDS011;59840;52.122;5.404;2024-02-26T12:44:49;3.55;;;2.33;;
71973;SDS011;59840;52.122;5.404;2024-02-26T12:47:16;5.18;;;2.80;;
71973;SDS011;59840;52.122;5.404;2024-02-26T12:49:46;3.47;;;2.40;;
71973;SDS011;59840;52.122;5.404;2024-02-26T12:52:14;3.90;;;2.58;;
71973;SDS011;59840;52.122;5.404;2024-02-26T12:54:42;3.90;;;2.60;;
71973;SDS011;59840;52.122;5.404;2024-02-26T12:57:10;4.72;;;2.63;;
71973;SDS011;59840;52.122;5.404;2024-02-26T12:59:37;4.25;;;2.47;;
71973;SDS011;59840;52.122;5.404;2024-02-26T13:02:05;3.37;;;2.50;;
71973;SDS011;59840;52.122;5.404;2024-02-26T13:04:33;7.57;;;2.80;;
71973;SDS011;59840;52.122;5.404;2024-02-26T13:07:03;4.88;;;2.88;;
71973;SDS011;59840;52.122;5.404;2024-02-26T13:09:34;4.35;;;2.80;;
71973;SDS011;59840;52.122;5.404;2024-02-26T13:12:06;3.70;;;2.65;;
71973;SDS011;59840;52.122;5.404;2024-02-26T13:14:33;4.47;;;2.33;;
71973;SDS011;59840;52.122;5.404;2024-02-26T13:17:01;4.28;;;2.75;;
71973;SDS011;59840;52.122;5.404;2024-02-26T13:19:28;5.28;;;3.05;;
71973;SDS011;59840;52.122;5.404;2024-02-26T13:21:55;4.65;;;2.80;;
71973;SDS011;59840;52.122;5.404;2024-02-26T13:24:22;5.15;;;2.97;;
71973;SDS011;59840;52.122;5.404;2024-02-26T13:26:54;4.83;;;2.67;;
71973;SDS011;59840;52.122;5.404;2024-02-26T13:29:21;4.07;;;2.67;;
71973;SDS011;59840;52.122;5.404;2024-02-26T13:31:53;4.97;;;3.00;;
71973;SDS011;59840;52.122;5.404;2024-02-26T13:34:23;4.22;;;2.45;;
71973;SDS011;59840;52.122;5.404;2024-02-26T13:36:52;6.03;;;2.63;;
71973;SDS011;59840;52.122;5.404;2024-02-26T13:39:26;5.10;;;2.63;;
71973;SDS011;59840;52.122;5.404;2024-02-26T13:41:54;4.03;;;2.38;;
71973;SDS011;59840;52.122;5.404;2024-02-26T13:44:21;5.32;;;2.63;;
71973;SDS011;59840;52.122;5.404;2024-02-26T13:46:48;5.22;;;3.38;;
71973;SDS011;59840;52.122;5.404;2024-02-26T13:49:18;3.75;;;2.50;;
71973;SDS011;59840;52.122;5.404;2024-02-26T13:51:45;4.37;;;3.00;;
71973;SDS011;59840;52.122;5.404;2024-02-26T13:54:11;4.07;;;2.70;;
71973;SDS011;59840;52.122;5.404;2024-02-26T13:56:40;4.47;;;2.85;;
71973;SDS011;59840;52.122;5.404;2024-02-26T13:59:08;5.50;;;2.72;;
71973;SDS011;59840;52.122;5.404;2024-02-26T14:01:35;3.80;;;2.47;;
71973;SDS011;59840;52.122;5.404;2024-02-26T14:04:01;5.10;;;2.47;;
71973;SDS011;59840;52.122;5.404;2024-02-26T14:06:29;3.92;;;2.17;;
71973;SDS011;59840;52.122;5.404;2024-02-26T14:08:57;3.60;;;2.30;;
71973;SDS011;59840;52.122;5.404;2024-02-26T14:11:25;4.10;;;2.75;;
71973;SDS011;59840;52.122;5.404;2024-02-26T14:13:51;4.80;;;2.50;;
71973;SDS011;59840;52.122;5.404;2024-02-26T14:16:18;2.90;;;1.97;;
71973;SDS011;59840;52.122;5.404;2024-02-26T14:18:46;5.05;;;2.28;;
71973;SDS011;59840;52.122;5.404;2024-02-26T14:21:13;2.90;;;1.83;;
71973;SDS011;59840;52.122;5.404;2024-02-26T14:23:40;2.42;;;1.50;;
71973;SDS011;59840;52.122;5.404;2024-02-26T14:26:08;3.05;;;1.90;;
71973;SDS011;59840;52.122;5.404;2024-02-26T14:28:35;3.30;;;1.80;;
71973;SDS011;59840;52.122;5.404;2024-02-26T14:31:02;3.25;;;1.88;;
71973;SDS011;59840;52.122;5.404;2024-02-26T14:33:30;3.00;;;1.95;;
71973;SDS011;59840;52.122;5.404;2024-02-26T14:35:57;4.25;;;2.00;;
71973;SDS011;59840;52.122;5.404;2024-02-26T14:38:24;2.20;;;1.73;;
71973;SDS011;59840;52.122;5.404;2024-02-26T14:40:50;2.90;;;2.20;;
71973;SDS011;59840;52.122;5.404;2024-02-26T14:43:17;3.05;;;2.08;;
71973;SDS011;59840;52.122;5.404;2024-02-26T14:45:43;3.03;;;2.08;;
71973;SDS011;59840;52.122;5.404;2024-02-26T14:48:10;3.78;;;2.08;;
71973;SDS011;59840;52.122;5.404;2024-02-26T14:50:38;2.53;;;1.98;;